Time;durP1;ratioP1;P1;durP2;ratioP2;P2;SDS_P1;SDS_P2;PMS_P1;PMS_P2;Temp;Humidity;BMP_temperature;BMP_pressure;BME280_temperature;BME280_humidity;BME280_pressure;Samples;Min_cycle;Max_cycle;Signal;HPM_P1;HPM_P2
2024/04/25 00:02:17;;;;;;;0.10;0.10;;;;;;;10.34;51.15;100594.78;7360978;19;20018;-61
2024/04/25 00:04:42;;;;;;;0.10;0.10;;;;;;;10.38;51.32;100603.38;7354704;19;20395;-60
2024/04/25 00:07:08;;;;;;;0.03;0.03;;;;;;;10.32;50.92;100598.31;7358094;19;20788;-61
2024/04/25 00:09:33;;;;;;;0.05;0.05;;;;;;;10.28;51.10;100596.66;7359606;19;20491;-61
2024/04/25 00:11:58;;;;;;;0.00;0.00;;;;;;;10.22;51.14;100591.56;7357686;19;20082;-61
2024/04/25 00:14:24;;;;;;;0.10;0.10;;;;;;;10.13;50.94;100587.38;7361183;19;20007;-61
2024/04/25 00:16:49;;;;;;;0.00;0.00;;;;;;;10.14;51.32;100590.00;7357560;19;20031;-60
2024/04/25 00:19:15;;;;;;;0.10;0.10;;;;;;;10.10;51.14;100588.34;7360010;19;20018;-59
2024/04/25 00:21:40;;;;;;;0.00;0.00;;;;;;;9.86;51.15;100552.34;7360203;19;20014;-60
2024/04/25 00:24:05;;;;;;;0.10;0.10;;;;;;;10.03;51.15;100588.50;7355245;19;20006;-60
2024/04/25 00:26:31;;;;;;;0.00;0.00;;;;;;;9.98;50.94;100577.31;7359882;19;20006;-60
2024/04/25 00:28:56;;;;;;;0.08;0.08;;;;;;;9.76;50.90;100546.47;7360003;19;20289;-60
2024/04/25 00:31:23;;;;;;;0.03;0.03;;;;;;;9.89;51.04;100573.16;7354645;19;20007;-59
2024/04/25 00:33:49;;;;;;;0.10;0.10;;;;;;;9.84;51.03;100564.59;7356185;19;20406;-60
2024/04/25 00:36:14;;;;;;;0.00;0.00;;;;;;;9.78;51.21;100564.69;7359977;19;20441;-59
2024/04/25 00:38:40;;;;;;;0.00;0.00;;;;;;;9.74;51.61;100561.31;7334318;19;20400;-61
2024/04/25 00:41:06;;;;;;;0.00;0.00;;;;;;;9.66;51.55;100546.72;7359266;19;20019;-59
2024/04/25 00:43:32;;;;;;;0.00;0.00;;;;;;;9.66;51.29;100546.72;7360531;19;20398;-60
2024/04/25 00:45:58;;;;;;;0.00;0.00;;;;;;;9.57;51.12;100539.94;7353764;19;20029;-59
2024/04/25 00:48:25;;;;;;;0.10;0.10;;;;;;;9.26;51.38;100498.03;7357480;19;20403;-59
2024/04/25 00:50:52;;;;;;;0.00;0.00;;;;;;;9.52;51.23;100544.38;7358204;19;20023;-61
2024/04/25 00:53:18;;;;;;;0.00;0.00;;;;;;;9.46;51.50;100542.78;7357646;19;20118;-60
2024/04/25 00:55:47;;;;;;;0.00;0.00;;;;;;;9.44;51.36;100538.50;7360146;19;20491;-61
2024/04/25 00:58:14;;;;;;;0.00;0.00;;;;;;;9.37;51.64;100529.94;7354902;19;20013;-61
2024/04/25 01:00:42;;;;;;;0.00;0.00;;;;;;;9.35;51.61;100531.72;7360460;19;20061;-60
2024/04/25 01:03:10;;;;;;;;;;;;;;;9.32;49.68;100526.56;7357740;19;20663;-60
2024/04/25 01:05:39;;;;;;;0.00;0.00;;;;;;;9.27;51.17;100531.84;7350391;19;19922;-60
2024/04/25 01:08:04;;;;;;;0.00;0.00;;;;;;;9.22;51.41;100522.41;7355490;19;20044;-60
2024/04/25 01:10:30;;;;;;;0.00;0.00;;;;;;;9.19;51.72;100523.34;7361729;19;20010;-60
2024/04/25 01:12:55;;;;;;;0.00;0.00;;;;;;;9.16;51.93;100520.78;7361424;19;20014;-60
2024/04/25 01:15:20;;;;;;;0.10;0.10;;;;;;;9.14;51.93;100519.13;7363793;19;20060;-60
2024/04/25 01:17:46;;;;;;;0.00;0.00;;;;;;;9.14;52.11;100516.53;7362179;19;20044;-60
2024/04/25 01:20:11;;;;;;;0.00;0.00;;;;;;;9.13;52.41;100507.00;7361774;19;20010;-60
2024/04/25 01:22:44;;;;;;;0.10;0.10;;;;;;;9.14;52.32;100503.50;7356880;19;20003;-60
2024/04/25 01:25:11;;;;;;;0.10;0.10;;;;;;;9.18;52.17;100510.38;7356575;19;20014;-60
2024/04/25 01:27:37;;;;;;;0.00;0.00;;;;;;;9.07;52.45;100474.97;7357081;19;20754;-60
2024/04/25 01:30:03;;;;;;;0.10;0.10;;;;;;;9.22;52.58;100496.38;7362092;19;20027;-60
2024/04/25 01:32:30;;;;;;;0.00;0.00;;;;;;;9.24;52.54;100485.03;7358718;19;20006;-60
2024/04/25 01:34:56;;;;;;;0.00;0.00;;;;;;;9.27;52.42;100489.31;7359054;19;20820;-60
2024/04/25 01:37:22;;;;;;;0.10;0.10;;;;;;;9.29;52.31;100482.34;7361709;19;20007;-59
2024/04/25 01:39:47;;;;;;;0.00;0.00;;;;;;;9.31;52.42;100470.13;7359714;19;20105;-60
2024/04/25 01:42:13;;;;;;;0.00;0.00;;;;;;;9.24;51.78;100464.19;7357633;19;20006;-60
2024/04/25 01:44:38;;;;;;;0.10;0.10;;;;;;;9.37;52.10;100475.19;7352509;19;20006;-60
2024/04/25 01:47:03;;;;;;;0.10;0.10;;;;;;;9.36;51.69;100468.28;7362609;19;20011;-60
2024/04/25 01:49:29;;;;;;;0.00;0.00;;;;;;;9.39;51.42;100462.16;7362692;19;20006;-59
2024/04/25 01:51:54;;;;;;;0.00;0.00;;;;;;;9.40;51.98;100464.72;7361707;19;20117;-60
2024/04/25 01:54:20;;;;;;;0.08;0.08;;;;;;;9.43;52.13;100462.06;7358005;19;20074;-60
2024/04/25 01:56:45;;;;;;;0.00;0.00;;;;;;;9.40;51.61;100454.28;7360119;19;20015;-60
2024/04/25 01:59:10;;;;;;;0.00;0.00;;;;;;;9.43;51.62;100459.44;7351821;19;20042;-60
2024/04/25 02:01:36;;;;;;;0.00;0.00;;;;;;;9.43;51.89;100454.25;7356992;19;20039;-61
2024/04/25 02:04:01;;;;;;;0.10;0.10;;;;;;;9.43;51.73;100449.03;7361750;19;20056;-60
2024/04/25 02:06:27;;;;;;;0.00;0.00;;;;;;;9.43;51.89;100449.03;7356315;19;20044;-60
2024/04/25 02:08:54;;;;;;;0.00;0.00;;;;;;;9.42;51.85;100446.44;7353165;19;20014;-59
2024/04/25 02:11:19;;;;;;;0.10;0.10;;;;;;;9.41;51.80;100445.59;7351623;19;20018;-60
2024/04/25 02:13:45;;;;;;;0.05;0.05;;;;;;;9.39;52.14;100439.56;7354629;19;20013;-61
2024/04/25 02:16:10;;;;;;;0.10;0.10;;;;;;;9.39;52.32;100436.09;7360422;19;20028;-60
2024/04/25 02:18:36;;;;;;;0.00;0.00;;;;;;;9.26;52.46;100417.25;7363489;19;20459;-60
2024/04/25 02:26:30;;;;;;;0.05;0.05;;;;;;;9.29;51.90;100427.63;7366423;19;20050;-59
2024/04/25 02:28:55;;;;;;;0.00;0.00;;;;;;;9.26;52.38;100419.84;7364383;19;20352;-60
2024/04/25 02:31:25;;;;;;;0.10;0.10;;;;;;;9.27;52.30;100416.34;7362484;19;20408;-60
2024/04/25 02:33:50;;;;;;;0.00;0.00;;;;;;;9.26;52.18;100404.22;7363306;19;20756;-60
2024/04/25 02:36:16;;;;;;;0.10;0.10;;;;;;;9.22;52.42;100403.44;7364478;19;20393;-60
2024/04/25 02:38:41;;;;;;;0.10;0.10;;;;;;;9.23;52.64;100391.28;7362499;19;20019;-60
2024/04/25 02:41:06;;;;;;;0.00;0.00;;;;;;;9.24;52.40;100390.38;7363587;19;20030;-60
2024/04/25 02:43:32;;;;;;;0.00;0.00;;;;;;;9.21;52.38;100385.22;7352381;19;20051;-60
2024/04/25 02:45:57;;;;;;;0.08;0.08;;;;;;;9.22;52.17;100379.13;7361463;19;20027;-59
2024/04/25 02:48:23;;;;;;;0.03;0.03;;;;;;;9.20;52.38;100378.31;7364336;19;20024;-60
2024/04/25 02:50:48;;;;;;;0.10;0.10;;;;;;;9.19;52.26;100377.47;7365160;19;20031;-60
2024/04/25 02:53:13;;;;;;;0.00;0.00;;;;;;;9.17;52.38;100380.97;7363959;19;20019;-60
2024/04/25 02:55:40;;;;;;;0.10;0.10;;;;;;;9.17;52.09;100378.38;7361817;19;20462;-59
2024/04/25 02:58:05;;;;;;;0.10;0.10;;;;;;;9.15;52.40;100369.75;7361870;19;20019;-60
2024/04/25 03:00:31;;;;;;;0.00;0.00;;;;;;;9.13;52.09;100374.16;7363565;19;20013;-60
2024/04/25 03:02:56;;;;;;;0.10;0.10;;;;;;;9.15;52.29;100367.13;7362599;19;20010;-60
2024/04/25 03:05:22;;;;;;;0.03;0.03;;;;;;;9.14;52.55;100362.81;7361469;19;20015;-60
2024/04/25 03:07:47;;;;;;;0.00;0.00;;;;;;;9.10;52.81;100357.66;7363551;19;20028;-60
2024/04/25 03:10:12;;;;;;;0.10;0.10;;;;;;;8.94;52.28;100324.19;7365281;19;20469;-60
2024/04/25 03:12:38;;;;;;;0.10;0.10;;;;;;;9.13;51.99;100361.97;7360573;19;20043;-60
2024/04/25 03:15:04;;;;;;;0.08;0.08;;;;;;;9.13;51.96;100353.31;7336228;19;20002;-60
2024/04/25 03:17:29;;;;;;;0.10;0.10;;;;;;;9.12;52.54;100352.41;7364803;19;20026;-60
2024/04/25 03:19:55;;;;;;;0.00;0.00;;;;;;;9.13;52.54;100353.31;7364313;19;20043;-60
2024/04/25 03:22:20;;;;;;;0.10;0.10;;;;;;;9.11;52.57;100353.31;7362314;19;20013;-60
2024/04/25 03:24:46;;;;;;;0.08;0.08;;;;;;;9.09;52.20;100345.53;7365749;19;20031;-60
2024/04/25 03:27:11;;;;;;;0.10;0.10;;;;;;;9.09;52.29;100345.53;7355797;19;20039;-60
2024/04/25 03:29:37;;;;;;;0.10;0.10;;;;;;;9.02;52.19;100336.16;7364144;19;20010;-60
2024/04/25 03:32:02;;;;;;;0.10;0.10;;;;;;;9.07;52.12;100336.94;7349318;19;20010;-59
2024/04/25 03:34:28;;;;;;;0.00;0.00;;;;;;;9.07;52.36;100331.72;7365854;19;20011;-60
2024/04/25 03:36:56;;;;;;;0.00;0.00;;;;;;;9.07;52.82;100333.44;7362509;19;20018;-60
2024/04/25 03:39:21;;;;;;;0.00;0.00;;;;;;;9.05;52.76;100328.25;7357043;19;20918;-60
2024/04/25 03:41:50;;;;;;;0.10;0.10;;;;;;;9.05;52.69;100330.03;7361998;19;20090;-60
2024/04/25 03:44:16;;;;;;;0.00;0.00;;;;;;;9.02;52.68;100322.25;7358646;19;20003;-60
2024/04/25 03:46:41;;;;;;;0.10;0.10;;;;;;;9.00;52.46;100314.50;7356069;19;20361;-59
2024/04/25 03:49:08;;;;;;;0.10;0.10;;;;;;;8.98;52.75;100308.47;7363671;19;20070;-60
2024/04/25 03:51:35;;;;;;;0.10;0.10;;;;;;;8.99;52.56;100311.94;7359423;19;20026;-60
2024/04/25 03:54:01;;;;;;;0.00;0.00;;;;;;;8.90;52.38;100288.69;7364467;19;20010;-59
2024/04/25 03:56:26;;;;;;;0.00;0.00;;;;;;;8.97;52.77;100304.16;7362367;19;20034;-60
2024/04/25 03:58:51;;;;;;;0.10;0.10;;;;;;;8.97;52.67;100298.94;7364449;19;20134;-60
2024/04/25 04:01:17;;;;;;;0.10;0.10;;;;;;;8.95;52.77;100295.50;7355674;19;20015;-59
2024/04/25 04:03:42;;;;;;;0.08;0.08;;;;;;;8.94;52.59;100293.81;7358582;19;20002;-61
2024/04/25 04:06:08;;;;;;;0.00;0.00;;;;;;;8.92;52.54;100290.38;7361411;19;20043;-59
2024/04/25 04:08:33;;;;;;;0.00;0.00;;;;;;;8.93;52.72;100284.28;7363588;19;21054;-60
2024/04/25 04:10:59;;;;;;;0.00;0.00;;;;;;;8.92;52.93;100279.97;7364904;19;20042;-59
2024/04/25 04:13:24;;;;;;;0.00;0.00;;;;;;;8.92;52.92;100274.75;7363332;19;20835;-59
2024/04/25 04:15:49;;;;;;;0.08;0.08;;;;;;;8.88;53.07;100267.91;7362766;19;20073;-60
2024/04/25 04:18:15;;;;;;;0.00;0.00;;;;;;;8.93;53.16;100276.47;7357008;19;20383;-59
2024/04/25 04:20:43;;;;;;;0.00;0.00;;;;;;;8.93;53.16;100273.88;7362229;19;20369;-60
2024/04/25 04:23:09;;;;;;;0.00;0.00;;;;;;;8.50;53.03;100183.72;7363588;19;20051;-60
2024/04/25 04:25:34;;;;;;;0.00;0.00;;;;;;;8.83;53.15;100238.50;7363841;19;20896;-60
2024/04/25 04:28:00;;;;;;;0.00;0.00;;;;;;;8.92;53.13;100246.13;7362550;19;20014;-61
2024/04/25 04:30:25;;;;;;;0.10;0.10;;;;;;;8.90;52.94;100250.50;7361086;19;20102;-60
2024/04/25 04:32:51;;;;;;;0.00;0.00;;;;;;;8.91;53.06;100241.78;7361110;19;20011;-60
2024/04/25 04:35:17;;;;;;;0.10;0.10;;;;;;;8.90;52.94;100250.50;7359589;19;20014;-60
2024/04/25 04:37:42;;;;;;;0.00;0.00;;;;;;;8.91;53.60;100246.13;7351874;19;20014;-60
2024/04/25 04:40:08;;;;;;;0.00;0.00;;;;;;;8.78;53.19;100224.75;7360870;19;20002;-60
2024/04/25 04:42:33;;;;;;;0.00;0.00;;;;;;;8.91;52.88;100240.94;7358174;19;20346;-60
2024/04/25 04:44:59;;;;;;;0.05;0.05;;;;;;;8.93;53.05;100245.22;7361418;19;20006;-60
2024/04/25 04:47:24;;;;;;;0.05;0.05;;;;;;;8.94;53.30;100244.31;7360993;19;20018;-60
2024/04/25 04:49:49;;;;;;;0.10;0.10;;;;;;;8.95;53.13;100240.81;7360459;19;20876;-59
2024/04/25 04:52:15;;;;;;;0.00;0.00;;;;;;;8.97;53.14;100238.16;7362384;19;20031;-60
2024/04/25 04:54:40;;;;;;;0.10;0.10;;;;;;;8.89;53.00;100222.75;7362553;19;20033;-60
2024/04/25 04:57:05;;;;;;;0.10;0.10;;;;;;;8.99;53.12;100234.66;7356003;19;20109;-60
2024/04/25 04:59:31;;;;;;;0.00;0.00;;;;;;;8.88;53.13;100209.78;7360920;19;20015;-60
2024/04/25 05:01:56;;;;;;;0.05;0.05;;;;;;;9.00;53.02;100238.97;7362447;19;20015;-60
2024/04/25 05:04:22;;;;;;;0.00;0.00;;;;;;;9.01;53.14;100227.66;7359895;19;20017;-60
2024/04/25 05:06:48;;;;;;;0.10;0.10;;;;;;;9.02;53.24;100234.59;7359288;19;20022;-60
2024/04/25 05:09:13;;;;;;;0.00;0.00;;;;;;;9.02;53.47;100224.19;7360152;19;20011;-59
2024/04/25 05:11:38;;;;;;;0.00;0.00;;;;;;;9.03;53.41;100220.69;7361421;19;20015;-60
2024/04/25 05:14:04;;;;;;;0.00;0.00;;;;;;;9.04;53.02;100224.13;7360862;19;20014;-61
2024/04/25 05:16:33;;;;;;;0.00;0.00;;;;;;;9.04;53.36;100219.78;7360022;19;20010;-60
2024/04/25 05:19:01;;;;;;;0.00;0.00;;;;;;;9.01;53.17;100209.41;7361772;19;20022;-60
2024/04/25 05:21:30;;;;;;;0.00;0.00;;;;;;;9.03;53.49;100209.41;7362026;19;20038;-60
2024/04/25 05:23:56;;;;;;;0.10;0.10;;;;;;;9.06;53.21;100207.56;7363377;19;20479;-60
2024/04/25 05:26:21;;;;;;;0.03;0.03;;;;;;;9.07;53.45;100203.19;7356111;19;20011;-60
2024/04/25 05:28:46;;;;;;;0.00;0.00;;;;;;;9.07;53.11;100198.00;7361422;19;20051;-59
2024/04/25 05:31:12;;;;;;;0.00;0.00;;;;;;;9.08;53.53;100208.41;7358595;19;20006;-60
2024/04/25 05:33:37;;;;;;;0.00;0.00;;;;;;;8.82;53.62;100162.16;7364348;19;20022;-60
2024/04/25 05:36:03;;;;;;;0.03;0.03;;;;;;;9.08;53.37;100197.97;7354160;19;20035;-59
2024/04/25 05:38:28;;;;;;;0.10;0.10;;;;;;;9.06;53.65;100191.94;7360974;19;20789;-60
2024/04/25 05:40:54;;;;;;;0.00;0.00;;;;;;;9.09;53.77;100198.81;7355416;19;20409;-60
2024/04/25 05:43:19;;;;;;;0.10;0.10;;;;;;;9.10;53.33;100190.13;7361935;19;20030;-60
2024/04/25 05:45:45;;;;;;;0.10;0.10;;;;;;;9.07;53.73;100184.97;7354221;19;20030;-60
2024/04/25 05:48:10;;;;;;;0.00;0.00;;;;;;;9.05;53.77;100177.19;7359815;19;20011;-59
2024/04/25 05:50:37;;;;;;;0.00;0.00;;;;;;;9.08;53.91;100182.34;7358445;19;20403;-60
2024/04/25 05:53:04;;;;;;;0.00;0.00;;;;;;;9.09;53.74;100178.84;7365031;19;20482;-60
2024/04/25 05:55:30;;;;;;;0.00;0.00;;;;;;;9.09;54.04;100183.19;7368064;19;20014;-59
2024/04/25 05:57:56;;;;;;;0.00;0.00;;;;;;;9.04;53.85;100172.91;7360778;19;20034;-60
2024/04/25 06:00:21;;;;;;;0.10;0.10;;;;;;;9.08;54.02;100181.50;7366994;19;20356;-61
2024/04/25 06:02:47;;;;;;;0.00;0.00;;;;;;;9.08;53.79;100177.13;7365510;19;20045;-61
2024/04/25 06:05:13;;;;;;;0.10;0.10;;;;;;;9.08;54.06;100176.28;7364853;19;20023;-59
2024/04/25 06:07:38;;;;;;;0.10;0.10;;;;;;;8.90;54.00;100135.06;7364241;19;20081;-60
2024/04/25 06:10:04;;;;;;;0.00;0.00;;;;;;;9.08;53.96;100165.88;7366566;19;20017;-60
2024/04/25 06:12:30;;;;;;;0.00;0.00;;;;;;;9.08;54.35;100156.31;7362606;19;21009;-60
2024/04/25 06:14:55;;;;;;;0.10;0.10;;;;;;;9.08;54.00;100140.69;7364447;19;20013;-60
2024/04/25 06:17:21;;;;;;;0.00;0.00;;;;;;;9.09;54.16;100146.72;7355910;19;20038;-61
2024/04/25 06:19:46;;;;;;;0.00;0.00;;;;;;;9.09;54.37;100142.38;7366542;19;20110;-60
2024/04/25 06:22:13;;;;;;;0.08;0.08;;;;;;;9.09;54.14;100142.38;7364560;19;20002;-60
2024/04/25 06:24:38;;;;;;;0.10;0.10;;;;;;;9.13;54.27;100137.09;7365382;19;20027;-60
2024/04/25 06:27:04;;;;;;;0.00;0.00;;;;;;;9.15;54.38;100135.31;7363496;19;20011;-60
2024/04/25 06:29:29;;;;;;;0.10;0.10;;;;;;;9.17;54.52;100136.97;7362597;19;20503;-60
2024/04/25 06:31:55;;;;;;;0.10;0.10;;;;;;;9.07;54.40;100118.13;7362843;19;20006;-60
2024/04/25 06:34:21;;;;;;;0.00;0.00;;;;;;;9.17;54.27;100120.47;7357601;19;20018;-61
2024/04/25 06:36:47;;;;;;;0.05;0.05;;;;;;;9.02;54.52;100093.97;7363473;19;20324;-61
2024/04/25 06:39:12;;;;;;;0.10;0.10;;;;;;;9.09;54.42;100103.31;7357314;19;20352;-60
2024/04/25 06:41:37;;;;;;;0.03;0.03;;;;;;;9.25;54.61;100121.13;7362691;19;20014;-59
2024/04/25 06:44:05;;;;;;;0.08;0.08;;;;;;;9.30;54.77;100119.28;7359898;19;20010;-60
2024/04/25 06:46:30;;;;;;;;;;;;;;;9.33;52.77;100120.06;7365092;19;20038;-59
2024/04/25 06:48:56;;;;;;;0.00;0.00;;;;;;;9.30;54.19;100114.06;7361012;19;19915;-60
2024/04/25 06:51:21;;;;;;;0.10;0.10;;;;;;;9.33;54.25;100108.78;7364209;19;20027;-60
2024/04/25 06:53:47;;;;;;;0.08;0.08;;;;;;;9.35;54.39;100112.19;7364474;19;20010;-63
2024/04/25 06:56:13;;;;;;;0.10;0.10;;;;;;;9.37;54.53;100110.38;7365463;19;20039;-59
2024/04/25 06:58:39;;;;;;;0.03;0.03;;;;;;;9.39;54.69;100102.53;7360864;19;20444;-60
2024/04/25 07:01:05;;;;;;;0.10;0.10;;;;;;;9.31;54.45;100085.34;7362399;19;20375;-60
2024/04/25 07:03:31;;;;;;;0.10;0.10;;;;;;;9.44;54.85;100090.25;7358601;19;20809;-61
2024/04/25 07:05:56;;;;;;;0.03;0.03;;;;;;;9.48;54.52;100092.72;7358635;19;20014;-60
2024/04/25 07:08:21;;;;;;;0.10;0.10;;;;;;;9.48;54.63;100087.50;7366542;19;20158;-60
2024/04/25 07:10:48;;;;;;;0.00;0.00;;;;;;;9.55;54.46;100099.44;7361622;19;20007;-60
2024/04/25 07:13:13;;;;;;;0.10;0.10;;;;;;;9.59;54.93;100095.03;7362035;19;20053;-60
2024/04/25 07:15:38;;;;;;;0.10;0.10;;;;;;;9.62;55.01;100090.56;7366156;19;20623;-59
2024/04/25 07:18:06;;;;;;;0.10;0.10;;;;;;;9.69;54.55;100088.66;7363113;19;20014;-60
2024/04/25 07:20:31;;;;;;;0.00;0.00;;;;;;;9.75;54.97;100085.84;7364989;19;20015;-59
2024/04/25 07:22:57;;;;;;;0.00;0.00;;;;;;;9.83;55.13;100083.88;7364100;19;20011;-60
2024/04/25 07:25:23;;;;;;;0.10;0.10;;;;;;;9.89;55.01;100067.19;7361039;19;20049;-60
2024/04/25 07:27:48;;;;;;;0.00;0.00;;;;;;;9.92;55.02;100072.31;7363840;19;20019;-60
2024/04/25 07:30:13;;;;;;;0.00;0.00;;;;;;;9.96;55.01;100073.94;7356860;19;20109;-59
2024/04/25 07:32:39;;;;;;;0.10;0.10;;;;;;;9.97;54.71;100070.41;7363595;19;20487;-59
2024/04/25 07:35:05;;;;;;;0.00;0.00;;;;;;;10.03;54.75;100070.22;7361897;19;20007;-61
2024/04/25 07:37:32;;;;;;;0.00;0.00;;;;;;;10.05;54.75;100058.00;7362108;19;20645;-59
2024/04/25 07:39:57;;;;;;;0.10;0.10;;;;;;;10.08;54.84;100059.66;7337586;19;20047;-60
2024/04/25 07:42:23;;;;;;;0.00;0.00;;;;;;;10.09;55.03;100051.78;7353892;19;20073;-60
2024/04/25 07:44:48;;;;;;;0.10;0.10;;;;;;;10.11;55.10;100041.31;7364127;19;20621;-61
2024/04/25 07:47:13;;;;;;;0.10;0.10;;;;;;;10.09;55.11;100033.53;7362861;19;20716;-60
2024/04/25 07:49:39;;;;;;;0.00;0.00;;;;;;;10.13;55.39;100040.34;7363247;19;20014;-61
2024/04/25 07:52:06;;;;;;;0.10;0.10;;;;;;;10.18;55.23;100041.94;7361961;19;20023;-60
2024/04/25 07:54:32;;;;;;;0.10;0.10;;;;;;;10.21;55.68;100057.53;7365162;19;20015;-60
2024/04/25 07:56:57;;;;;;;0.10;0.10;;;;;;;10.25;55.53;100038.31;7364337;19;20511;-60
2024/04/25 07:59:23;;;;;;;0.00;0.00;;;;;;;10.29;55.46;100035.53;7360144;19;20015;-59
2024/04/25 08:01:48;;;;;;;0.00;0.00;;;;;;;10.33;55.33;100031.06;7363701;19;20014;-59
2024/04/25 08:04:14;;;;;;;0.10;0.10;;;;;;;10.37;55.36;100027.44;7325081;19;20763;-59
2024/04/25 08:06:40;;;;;;;0.03;0.03;;;;;;;10.41;55.50;100025.59;7358275;19;20495;-60
2024/04/25 08:09:05;;;;;;;0.10;0.10;;;;;;;10.33;55.33;100004.97;7364284;19;20014;-60
2024/04/25 08:11:31;;;;;;;0.10;0.10;;;;;;;10.47;55.88;100010.59;7365048;19;20013;-60
2024/04/25 08:13:57;;;;;;;0.08;0.08;;;;;;;10.47;55.90;100005.38;7363056;19;20018;-60
2024/04/25 08:16:22;;;;;;;0.10;0.10;;;;;;;10.51;55.23;100001.75;7365377;19;20551;-59
2024/04/25 08:18:48;;;;;;;0.08;0.08;;;;;;;10.62;55.47;100001.38;7360783;19;20017;-60
2024/04/25 08:21:14;;;;;;;0.10;0.10;;;;;;;10.72;55.60;100012.38;7362120;19;20013;-60
2024/04/25 08:23:40;;;;;;;0.00;0.00;;;;;;;10.80;55.45;100010.38;7352615;19;20070;-60
2024/04/25 08:26:05;;;;;;;0.10;0.10;;;;;;;10.91;55.32;100003.00;7362649;19;21615;-61
2024/04/25 08:28:31;;;;;;;0.10;0.10;;;;;;;11.01;55.68;100001.75;7362724;19;20512;-60
2024/04/25 08:30:56;;;;;;;0.10;0.10;;;;;;;11.13;55.75;100001.31;7362443;19;20010;-60
2024/04/25 08:33:22;;;;;;;0.10;0.10;;;;;;;11.02;55.41;99964.28;7361374;19;20072;-60
2024/04/25 08:35:47;;;;;;;0.10;0.10;;;;;;;11.38;55.02;99997.81;7361564;19;20359;-60
2024/04/25 08:38:13;;;;;;;0.10;0.10;;;;;;;11.51;55.23;99998.22;7358062;19;20038;-60
2024/04/25 08:40:38;;;;;;;0.00;0.00;;;;;;;11.63;54.81;99992.50;7360181;19;20021;-60
2024/04/25 08:43:04;;;;;;;0.10;0.10;;;;;;;11.60;54.65;99956.84;7365023;19;20018;-61
2024/04/25 08:45:31;;;;;;;0.03;0.03;;;;;;;11.88;55.02;99984.59;7360975;19;20014;-60
2024/04/25 08:47:58;;;;;;;0.10;0.10;;;;;;;12.01;54.32;99977.09;7365240;19;20011;-60
2024/04/25 08:50:27;;;;;;;0.10;0.10;;;;;;;12.13;53.85;99971.38;7357235;19;21181;-60
2024/04/25 08:52:54;;;;;;;0.10;0.10;;;;;;;12.22;53.94;99959.69;7362019;19;20019;-61
2024/04/25 08:55:21;;;;;;;0.10;0.10;;;;;;;12.39;54.03;99965.06;7362958;19;20010;-60
2024/04/25 08:57:46;;;;;;;0.00;0.00;;;;;;;12.52;53.88;99963.66;7357936;19;20022;-60
2024/04/25 09:00:13;;;;;;;0.10;0.10;;;;;;;12.73;53.90;99967.09;7361100;19;20011;-60
2024/04/25 09:02:40;;;;;;;0.10;0.10;;;;;;;12.95;53.85;99959.16;7362947;19;20411;-60
2024/04/25 09:05:12;;;;;;;0.10;0.10;;;;;;;13.20;53.12;99962.38;7361971;19;20018;-61
2024/04/25 09:07:40;;;;;;;0.10;0.10;;;;;;;13.37;52.83;99960.78;7359815;19;20751;-60
2024/04/25 09:10:06;;;;;;;0.10;0.10;;;;;;;13.55;52.75;99967.81;7356110;19;20049;-60
2024/04/25 09:12:34;;;;;;;0.10;0.10;;;;;;;13.69;52.16;99962.78;7362474;19;20018;-61
2024/04/25 09:14:59;;;;;;;0.10;0.10;;;;;;;13.81;51.86;99968.34;7358139;19;20007;-59
2024/04/25 09:17:25;;;;;;;0.10;0.10;;;;;;;13.90;51.51;99962.66;7359159;19;20364;-60
2024/04/25 09:19:52;;;;;;;0.10;0.10;;;;;;;13.98;51.47;99963.13;7361780;19;20019;-60
2024/04/25 09:22:18;;;;;;;0.10;0.10;;;;;;;14.04;51.06;99973.34;7361398;19;20767;-60
2024/04/25 09:24:46;;;;;;;0.10;0.10;;;;;;;14.11;51.09;99964.25;7356120;19;20022;-61
2024/04/25 09:27:11;;;;;;;;;;;;;;;14.25;50.89;99963.56;7364513;19;20704;-60
2024/04/25 09:29:37;;;;;;;0.10;0.10;;;;;;;14.18;50.91;99952.50;7362362;19;19930;-60
2024/04/25 09:32:02;;;;;;;0.10;0.10;;;;;;;14.27;50.83;99962.56;7364816;19;21398;-60
2024/04/25 09:34:28;;;;;;;0.10;0.10;;;;;;;14.35;51.06;99953.47;7366150;19;20809;-60
2024/04/25 09:36:55;;;;;;;0.10;0.10;;;;;;;14.43;50.92;99953.91;7360093;19;20066;-60
2024/04/25 09:39:20;;;;;;;0.10;0.10;;;;;;;14.50;51.26;99948.31;7357570;19;20022;-59
2024/04/25 09:41:47;;;;;;;0.10;0.10;;;;;;;14.57;50.46;99938.31;7369816;19;20014;-60
2024/04/25 09:44:13;;;;;;;0.10;0.10;;;;;;;14.49;50.70;99908.97;7364468;19;20053;-60
2024/04/25 09:46:56;;;;;;;0.10;0.10;;;;;;;14.74;50.84;99921.69;7368220;19;20010;-60
2024/04/25 09:49:28;;;;;;;0.10;0.10;;;;;;;14.99;50.78;99940.47;7336653;19;20010;-60
2024/04/25 09:52:14;;;;;;;0.10;0.10;;;;;;;15.26;50.61;99925.03;7371299;19;20029;-60
2024/04/25 09:54:47;;;;;;;0.10;0.10;;;;;;;15.50;50.48;99929.84;7366943;19;20368;-60
2024/04/25 09:57:16;;;;;;;0.10;0.10;;;;;;;15.75;50.25;99924.94;7366149;19;20113;-60
2024/04/25 09:59:53;;;;;;;0.10;0.10;;;;;;;16.05;49.56;99918.88;7366021;19;20031;-61
2024/04/25 10:02:19;;;;;;;0.10;0.10;;;;;;;16.18;49.14;99917.25;7367612;19;20042;-60
2024/04/25 10:04:45;;;;;;;0.10;0.10;;;;;;;16.30;48.40;99916.50;7357057;19;20003;-60
2024/04/25 10:07:14;;;;;;;0.10;0.10;;;;;;;16.44;48.08;99907.78;7366628;19;20035;-61
2024/04/25 10:09:40;;;;;;;0.10;0.10;;;;;;;16.53;48.13;99904.63;7365896;19;20069;-60
2024/04/25 10:12:05;;;;;;;0.10;0.10;;;;;;;16.63;48.32;99902.28;7363608;19;20653;-60
2024/04/25 10:14:32;;;;;;;0.10;0.10;;;;;;;16.79;47.68;99897.78;7368921;19;20090;-60
2024/04/25 10:16:59;;;;;;;0.10;0.10;;;;;;;16.95;46.99;99902.13;7361435;19;20018;-60
2024/04/25 10:19:40;;;;;;;0.10;0.10;;;;;;;17.13;47.45;99895.69;7365785;19;20006;-60
2024/04/25 10:22:06;;;;;;;0.10;0.10;;;;;;;17.14;46.75;99892.13;7366231;19;20018;-60
2024/04/25 10:24:40;;;;;;;0.17;0.17;;;;;;;17.24;46.68;99890.59;7364102;19;20007;-60
2024/04/25 10:27:10;;;;;;;0.10;0.10;;;;;;;17.22;46.27;99886.34;7363048;19;20011;-60
2024/04/25 10:29:36;;;;;;;0.10;0.10;;;;;;;17.13;45.67;99890.41;7367456;19;20018;-60
2024/04/25 10:32:03;;;;;;;0.10;0.10;;;;;;;17.05;45.98;99890.91;7364133;19;20833;-60
2024/04/25 10:34:28;;;;;;;0.10;0.10;;;;;;;16.79;46.03;99868.78;7367376;19;20369;-60
2024/04/25 10:36:54;;;;;;;0.00;0.00;;;;;;;16.77;45.90;99894.38;7366536;19;20015;-59
2024/04/25 10:39:19;;;;;;;0.10;0.10;;;;;;;16.64;45.98;99896.06;7362221;19;20125;-60
2024/04/25 10:41:45;;;;;;;0.10;0.10;;;;;;;16.44;46.70;99883.25;7364936;19;21367;-60
2024/04/25 10:44:10;;;;;;;0.10;0.10;;;;;;;16.33;46.86;99884.72;7365304;19;20078;-60
2024/04/25 10:46:37;;;;;;;0.10;0.10;;;;;;;16.21;47.16;99877.53;7361457;19;20067;-60
2024/04/25 10:49:06;;;;;;;0.10;0.10;;;;;;;16.12;46.98;99875.47;7366656;19;20021;-60
2024/04/25 10:51:32;;;;;;;0.10;0.10;;;;;;;15.99;47.13;99874.47;7364806;19;20457;-60
2024/04/25 10:53:59;;;;;;;0.10;0.10;;;;;;;15.76;47.51;99852.97;7362751;19;20040;-61
2024/04/25 10:56:24;;;;;;;0.10;0.10;;;;;;;15.82;47.55;99872.81;7338375;19;20014;-59
2024/04/25 10:58:57;;;;;;;0.10;0.10;;;;;;;15.79;47.86;99873.84;7364386;19;20007;-60
2024/04/25 11:01:27;;;;;;;0.10;0.10;;;;;;;15.73;47.85;99862.81;7366123;19;20014;-60
2024/04/25 11:04:01;;;;;;;0.10;0.10;;;;;;;15.65;48.37;99865.88;7360838;19;20014;-60
2024/04/25 11:06:29;;;;;;;0.10;0.10;;;;;;;15.67;49.02;99858.75;7362236;19;20093;-60
2024/04/25 11:08:55;;;;;;;0.10;0.10;;;;;;;15.79;49.43;99858.03;7365036;19;20014;-60
2024/04/25 11:11:21;;;;;;;0.10;0.10;;;;;;;16.01;49.62;99846.25;7361924;19;20029;-60
2024/04/25 11:13:47;;;;;;;0.10;0.10;;;;;;;16.30;50.41;99842.75;7367145;19;20013;-61
2024/04/25 11:16:12;;;;;;;0.10;0.10;;;;;;;16.58;49.77;99835.81;7363056;19;20011;-60
2024/04/25 11:18:38;;;;;;;0.10;0.10;;;;;;;16.97;48.32;99847.47;7356978;19;20356;-60
2024/04/25 11:21:07;;;;;;;0.10;0.10;;;;;;;17.33;48.71;99841.66;7359415;19;20774;-61
2024/04/25 11:23:33;;;;;;;0.10;0.10;;;;;;;17.62;48.48;99834.50;7362346;19;20026;-60
2024/04/25 11:26:02;;;;;;;0.10;0.10;;;;;;;18.02;47.78;99831.88;7364513;19;20495;-60
2024/04/25 11:28:28;;;;;;;0.00;0.00;;;;;;;18.40;47.27;99834.56;7362924;19;20039;-60
2024/04/25 11:30:54;;;;;;;0.10;0.10;;;;;;;18.82;46.46;99828.09;7365161;19;20011;-60
2024/04/25 11:33:24;;;;;;;0.10;0.10;;;;;;;19.40;47.03;99815.94;7362614;19;20003;-60
2024/04/25 11:35:50;;;;;;;0.10;0.10;;;;;;;19.79;44.36;99814.00;7363832;19;20024;-60